Main page
METAR-TAF:

METAR-TAF

Airports :

Zakynthos International Airport

Zakynthos, Greece

latitude: 37-45N, longitude: 020-53E, elevation: 3 m

Current weather observation

The report was made 24 minutes ago, at 09:20 UTC
Wind 4 kt from the North
Temperature 31°C
Humidity 52%
Pressure 1011 hPa
Visibility 10 km or more
no clouds below 1500 m and no cumulonimbus

METAR: LGZA 240920Z 36004KT CAVOK 31/20 Q1011

Time: 12:44 (09:44 UTC)

Forecast

The report was made 1 hour and 44 minutes ago, at 08:00 UTC
Forecast valid from 24 at 09 UTC to 24 at 18 UTC
Wind 6 kt from the North
Visibility 10 km or more
Few clouds at a height of 3000 ft
Temporary
from 24 at 12 UTC to 24 at 15 UTC
Wind 12 kt from the North

TAF: LGZA 240800Z 2409/2418 35006KT 9999 FEW030 TEMPO 2412/2415 35012KT

Weather observations and forecasts of more than 4000 airports (METAR and TAF reports).

The available stations are represented by yellow and red dots on the map.

Hover mouse over dot to see the name of the station.

Then click to see weather observations and forecasts.

To change the map : click on the green buttons with a black cross to zoom in, on the green button with a dash to zoom out, or on the green arrows for adjacent maps.


METAR-TAF: